createdAt,value
2022-08-19T00:02:28.202Z,24.97
2022-08-19T00:05:31.577Z,24.91
2022-08-19T00:08:34.155Z,24.91
2022-08-19T00:11:38.510Z,25.03
2022-08-19T00:14:41.866Z,25.02
2022-08-19T00:17:45.547Z,25.25
2022-08-19T00:20:48.074Z,25.36
2022-08-19T00:23:51.362Z,25.29
2022-08-19T00:26:53.820Z,25.32
2022-08-19T00:29:59.911Z,25.29
2022-08-19T00:33:02.339Z,25.28
2022-08-19T00:36:08.222Z,25.29
2022-08-19T00:39:11.399Z,25.28
2022-08-19T00:42:15.816Z,25.19
2022-08-19T00:45:21.917Z,25.02
2022-08-19T00:48:24.650Z,24.92
2022-08-19T00:51:30.604Z,24.80
2022-08-19T00:54:34.162Z,24.78
2022-08-19T00:57:40.779Z,24.79
2022-08-19T01:00:44.365Z,24.90
2022-08-19T01:03:57.485Z,24.90
2022-08-19T01:07:03.395Z,24.83
2022-08-19T01:10:15.575Z,24.79
2022-08-19T01:13:26.300Z,24.83
2022-08-19T01:16:30.856Z,24.77
2022-08-19T01:19:44.253Z,24.67
2022-08-19T01:22:57.512Z,24.51
2022-08-19T01:26:00.296Z,24.50
2022-08-19T01:29:05.313Z,24.58
2022-08-19T01:32:33.288Z,24.67
2022-08-19T01:35:38.012Z,24.75
2022-08-19T01:38:44.344Z,24.70
2022-08-19T01:41:49.130Z,24.54
2022-08-19T01:44:51.915Z,24.54
2022-08-19T01:48:01.482Z,24.45
2022-08-19T01:51:06.788Z,24.33
2022-08-19T01:54:12.467Z,24.26
2022-08-19T01:57:15.746Z,24.31
2022-08-19T02:00:20.898Z,24.20
2022-08-19T02:03:24.147Z,24.18
2022-08-19T02:06:26.917Z,24.17
2022-08-19T02:09:32.166Z,24.09
2022-08-19T02:12:35.054Z,24.13
2022-08-19T02:15:40.713Z,24.15
2022-08-19T02:18:43.183Z,24.06
2022-08-19T02:21:46.071Z,23.94
2022-08-19T02:24:48.945Z,23.93
2022-08-19T02:27:51.817Z,23.92
2022-08-19T02:30:54.392Z,23.85
2022-08-19T02:33:57.872Z,23.78
2022-08-19T02:37:03.646Z,23.81
2022-08-19T02:40:12.558Z,23.86
2022-08-19T02:43:15.395Z,23.76
2022-08-19T02:46:22.562Z,23.69
2022-08-19T02:49:25.204Z,23.61
2022-08-19T02:52:30.579Z,23.52
2022-08-19T02:55:33.152Z,23.46
2022-08-19T02:58:49.687Z,23.44
2022-08-19T03:01:53.237Z,23.47
2022-08-19T03:04:56.197Z,23.39
2022-08-19T03:07:58.721Z,23.40
2022-08-19T03:11:01.580Z,23.33
2022-08-19T03:14:05.521Z,23.28
2022-08-19T03:17:09.011Z,23.31
2022-08-19T03:20:11.770Z,23.33
2022-08-19T03:23:16.276Z,23.28
2022-08-19T03:26:18.754Z,23.23
2022-08-19T03:29:30.312Z,23.21
2022-08-19T03:32:33.557Z,23.12
2022-08-19T03:35:40.133Z,23.03
2022-08-19T03:38:49.370Z,23.00
2022-08-19T03:42:32.808Z,23.11
2022-08-19T03:45:26.250Z,23.09
2022-08-19T03:48:32.783Z,23.06
2022-08-19T03:51:38.657Z,23.04
2022-08-19T03:54:41.425Z,23.15
2022-08-19T03:57:43.980Z,23.16
2022-08-19T04:00:46.890Z,23.16
2022-08-19T04:03:50.269Z,23.16
2022-08-19T04:06:53.903Z,23.11
2022-08-19T04:09:56.881Z,23.12
2022-08-19T04:12:59.454Z,23.13
2022-08-19T04:16:02.458Z,23.27
2022-08-19T04:19:07.533Z,23.20
2022-08-19T04:22:12.198Z,23.24
2022-08-19T04:25:14.771Z,23.25
2022-08-19T04:28:17.713Z,23.27
2022-08-19T04:31:27.744Z,23.28
2022-08-19T04:34:30.982Z,23.33
2022-08-19T04:37:35.002Z,23.32
2022-08-19T04:41:01.747Z,23.36
2022-08-19T04:44:04.798Z,23.36
2022-08-19T04:47:11.434Z,23.33
2022-08-19T04:50:14.842Z,23.35
2022-08-19T04:53:21.368Z,23.49
2022-08-19T04:56:27.211Z,23.45
2022-08-19T04:59:30.107Z,23.44
2022-08-19T05:02:33.157Z,23.46
2022-08-19T05:05:44.889Z,23.47
2022-08-19T05:08:48.442Z,23.62
2022-08-19T05:11:54.888Z,23.68
2022-08-19T05:14:58.782Z,23.72
2022-08-19T05:18:20.026Z,23.80
2022-08-19T05:21:42.635Z,23.91
2022-08-19T05:25:09.401Z,24.03
2022-08-19T05:28:08.073Z,24.05
2022-08-19T05:31:11.343Z,24.21
2022-08-19T05:34:20.322Z,24.33
2022-08-19T05:37:23.484Z,24.48
2022-08-19T05:40:25.950Z,24.53
2022-08-19T05:43:29.704Z,24.61
2022-08-19T05:46:32.575Z,24.80
2022-08-19T05:49:37.820Z,25.01
2022-08-19T05:52:43.708Z,25.01
2022-08-19T05:55:48.812Z,25.03
2022-08-19T05:58:51.450Z,25.11
2022-08-19T06:01:56.584Z,25.27
2022-08-19T06:04:59.514Z,25.17
2022-08-19T06:08:02.116Z,25.34
2022-08-19T06:11:33.579Z,25.55
2022-08-19T06:14:40.313Z,25.65
2022-08-19T06:17:47.554Z,25.79
2022-08-19T06:20:56.009Z,25.74
2022-08-19T06:23:59.754Z,25.93
2022-08-19T06:27:02.603Z,26.24
2022-08-19T06:30:06.402Z,26.29
2022-08-19T06:33:09.297Z,26.53
2022-08-19T06:36:32.354Z,26.79
2022-08-19T06:39:39.214Z,26.47
2022-08-19T06:42:50.236Z,26.52
2022-08-19T06:45:58.231Z,26.92
2022-08-19T06:49:02.293Z,27.16
2022-08-19T06:52:06.676Z,27.58
2022-08-19T06:55:10.238Z,27.89
2022-08-19T06:58:12.961Z,27.76
2022-08-19T07:01:16.273Z,28.29
2022-08-19T07:04:22.077Z,28.49
2022-08-19T07:07:25.122Z,28.87
2022-08-19T07:10:27.708Z,29.46
2022-08-19T07:13:30.676Z,29.93
2022-08-19T07:16:33.295Z,30.36
2022-08-19T07:19:36.351Z,30.11
2022-08-19T07:22:40.249Z,30.46
2022-08-19T07:25:43.567Z,29.60
2022-08-19T07:28:51.550Z,29.76
2022-08-19T07:31:57.452Z,30.09
2022-08-19T07:35:04.353Z,30.21
2022-08-19T07:38:07.404Z,31.18
2022-08-19T07:41:15.127Z,32.27
2022-08-19T07:44:21.145Z,32.40
2022-08-19T07:47:48.354Z,33.32
2022-08-19T07:50:46.620Z,33.38
2022-08-19T07:53:51.685Z,33.73
2022-08-19T07:56:54.795Z,34.05
2022-08-19T07:59:58.351Z,33.74
2022-08-19T08:03:01.093Z,35.02
2022-08-19T08:06:22.885Z,36.27
2022-08-19T08:09:35.131Z,36.59
2022-08-19T08:12:42.401Z,36.47
2022-08-19T08:15:45.718Z,37.32
2022-08-19T08:18:50.495Z,37.83
2022-08-19T08:21:58.833Z,38.01
2022-08-19T08:25:08.645Z,37.61
2022-08-19T08:28:17.536Z,37.14
2022-08-19T08:31:21.138Z,37.54
2022-08-19T08:34:23.949Z,37.85
2022-08-19T08:37:27.145Z,37.46
2022-08-19T08:40:54.455Z,37.41
2022-08-19T08:43:58.403Z,37.75
2022-08-19T08:47:05.235Z,38.50
2022-08-19T08:50:19.408Z,38.66
2022-08-19T08:53:29.228Z,39.77
2022-08-19T08:56:32.854Z,39.67
2022-08-19T08:59:38.578Z,39.54
2022-08-19T09:02:43.522Z,39.77
2022-08-19T09:05:51.889Z,39.24
2022-08-19T09:09:42.083Z,38.68
2022-08-19T09:13:15.757Z,39.16
2022-08-19T09:16:21.995Z,39.71
2022-08-19T09:19:31.829Z,39.09
2022-08-19T09:22:40.474Z,39.08
2022-08-19T09:25:43.204Z,39.74
2022-08-19T09:28:49.040Z,40.87
2022-08-19T09:31:51.640Z,41.22
2022-08-19T09:34:59.051Z,41.03
2022-08-19T09:38:02.955Z,41.50
2022-08-19T09:41:08.841Z,41.94
2022-08-19T09:44:14.298Z,42.04
2022-08-19T09:47:23.522Z,41.76
2022-08-19T09:50:29.203Z,42.23
2022-08-19T09:53:32.239Z,42.64
2022-08-19T09:56:38.187Z,42.38
2022-08-19T09:59:41.280Z,40.94
2022-08-19T10:02:45.691Z,41.33
2022-08-19T10:05:55.223Z,41.76
2022-08-19T10:08:58.266Z,39.89
2022-08-19T10:12:04.501Z,38.98
2022-08-19T10:15:09.360Z,38.82
2022-08-19T10:18:12.507Z,37.60
2022-08-19T10:21:19.659Z,37.57
2022-08-19T10:24:25.304Z,37.17
2022-08-19T10:27:28.002Z,37.19
2022-08-19T10:30:40.566Z,37.39
2022-08-19T10:33:53.353Z,37.35
2022-08-19T10:37:00.869Z,37.52
2022-08-19T10:40:08.555Z,37.61
2022-08-19T10:43:11.369Z,39.29
2022-08-19T10:46:17.004Z,39.90
2022-08-19T10:49:23.907Z,41.21
2022-08-19T10:52:38.795Z,42.55
2022-08-19T10:56:00.677Z,41.39
2022-08-19T10:59:07.253Z,41.12
2022-08-19T11:02:13.107Z,42.51
2022-08-19T11:05:18.306Z,42.84
2022-08-19T11:08:23.874Z,43.29
2022-08-19T11:11:27.605Z,44.10
2022-08-19T11:14:34.743Z,46.01
2022-08-19T11:17:37.407Z,46.90
2022-08-19T11:20:40.698Z,46.46
2022-08-19T11:23:44.292Z,45.45
2022-08-19T11:26:55.037Z,47.47
2022-08-19T11:29:58.059Z,48.34
2022-08-19T11:33:02.017Z,47.66
2022-08-19T11:36:07.113Z,48.55
2022-08-19T11:39:14.937Z,47.83
2022-08-19T11:42:50.555Z,48.88
2022-08-19T11:45:55.176Z,46.95
2022-08-19T11:49:01.439Z,46.54
2022-08-19T11:52:04.457Z,47.81
2022-08-19T11:55:08.148Z,49.16
2022-08-19T11:58:18.915Z,50.63
2022-08-19T12:01:23.441Z,48.10
2022-08-19T12:04:26.301Z,48.77
2022-08-19T12:07:30.105Z,47.74
2022-08-19T12:10:34.479Z,49.38
2022-08-19T12:13:37.727Z,48.66
2022-08-19T12:16:44.809Z,46.86
2022-08-19T12:19:54.791Z,47.90
2022-08-19T12:22:57.928Z,45.88
2022-08-19T12:26:03.312Z,44.57
2022-08-19T12:29:06.393Z,45.16
2022-08-19T12:32:12.733Z,43.26
2022-08-19T12:35:18.750Z,43.04
2022-08-19T12:38:25.220Z,43.41
2022-08-19T12:41:28.113Z,46.86
2022-08-19T12:44:32.934Z,46.75
2022-08-19T12:47:41.574Z,46.38
2022-08-19T12:50:47.997Z,45.43
2022-08-19T12:53:51.018Z,45.55
2022-08-19T12:56:53.657Z,45.77
2022-08-19T12:59:56.823Z,46.47
2022-08-19T13:03:00.679Z,48.05
2022-08-19T13:06:04.235Z,49.15
2022-08-19T13:09:06.739Z,46.81
2022-08-19T13:12:14.056Z,46.60
2022-08-19T13:15:23.726Z,43.61
2022-08-19T13:18:28.488Z,42.76
2022-08-19T13:21:32.496Z,45.49
2022-08-19T13:24:37.872Z,45.86
2022-08-19T13:27:47.516Z,46.24
2022-08-19T13:31:11.099Z,47.80
2022-08-19T13:34:15.100Z,45.11
2022-08-19T13:37:38.265Z,46.30
2022-08-19T13:40:41.800Z,47.49
2022-08-19T13:43:44.690Z,47.86
2022-08-19T13:46:53.979Z,47.28
2022-08-19T13:49:57.096Z,45.41
2022-08-19T13:53:00.767Z,45.05
2022-08-19T13:56:10.333Z,45.59
2022-08-19T13:59:13.372Z,47.70
2022-08-19T14:02:18.357Z,47.05
2022-08-19T14:05:21.969Z,46.18
2022-08-19T14:08:25.391Z,46.45
2022-08-19T14:11:30.400Z,45.15
2022-08-19T14:14:33.536Z,43.25
2022-08-19T14:17:42.735Z,39.40
2022-08-19T14:20:45.937Z,38.37
2022-08-19T14:23:48.785Z,36.87
2022-08-19T14:26:53.497Z,35.18
2022-08-19T14:29:58.071Z,34.72
2022-08-19T14:33:03.077Z,34.81
2022-08-19T14:36:07.714Z,34.95
2022-08-19T14:39:11.183Z,34.38
2022-08-19T14:42:15.517Z,34.81
2022-08-19T14:45:18.993Z,34.29
2022-08-19T14:48:22.579Z,33.46
2022-08-19T14:51:32.925Z,33.25
2022-08-19T14:54:35.882Z,33.24
2022-08-19T14:57:41.806Z,33.08
2022-08-19T15:00:44.710Z,32.74
2022-08-19T15:03:48.615Z,32.15
2022-08-19T15:06:51.934Z,31.94
2022-08-19T15:09:55.018Z,31.92
2022-08-19T15:12:57.982Z,32.01
2022-08-19T15:16:00.974Z,31.83
2022-08-19T15:19:03.873Z,31.81
2022-08-19T15:22:06.491Z,31.74
2022-08-19T15:25:11.884Z,31.54
2022-08-19T15:28:16.395Z,31.38
2022-08-19T15:31:28.071Z,31.21
2022-08-19T15:34:32.467Z,31.15
2022-08-19T15:37:37.010Z,30.94
2022-08-19T15:40:42.354Z,30.93
2022-08-19T15:43:45.189Z,30.88
2022-08-19T15:46:49.019Z,30.88
2022-08-19T15:49:58.908Z,30.82
2022-08-19T15:53:11.230Z,30.86
2022-08-19T15:56:15.184Z,30.81
2022-08-19T15:59:36.437Z,30.59
2022-08-19T16:03:08.383Z,30.56
2022-08-19T16:06:26.337Z,30.71
2022-08-19T16:09:31.057Z,30.60
2022-08-19T16:12:35.935Z,30.53
2022-08-19T16:15:39.980Z,30.49
2022-08-19T16:18:42.963Z,30.28
2022-08-19T16:21:49.122Z,30.39
2022-08-19T16:24:52.910Z,30.26
2022-08-19T16:28:07.845Z,30.34
2022-08-19T16:31:13.559Z,30.19
2022-08-19T16:34:16.225Z,30.08
2022-08-19T16:37:19.428Z,29.96
2022-08-19T16:40:23.996Z,29.95
2022-08-19T16:43:28.770Z,30.04
2022-08-19T16:46:31.544Z,29.80
2022-08-19T16:49:54.191Z,29.77
2022-08-19T16:52:58.887Z,29.78
2022-08-19T16:56:01.922Z,29.72
2022-08-19T16:59:04.804Z,29.71
2022-08-19T17:02:08.408Z,29.66
2022-08-19T17:05:12.930Z,29.59
2022-08-19T17:08:19.134Z,29.53
2022-08-19T17:11:24.397Z,29.50
2022-08-19T17:14:30.999Z,29.43
2022-08-19T17:17:37.441Z,29.30
2022-08-19T17:20:47.045Z,29.30
2022-08-19T17:23:51.178Z,29.05
2022-08-19T17:26:54.850Z,29.13
2022-08-19T17:30:00.233Z,29.03
2022-08-19T17:33:06.016Z,28.93
2022-08-19T17:36:10.969Z,28.80
2022-08-19T17:39:16.987Z,28.73
2022-08-19T17:42:20.313Z,28.61
2022-08-19T17:45:23.721Z,28.44
2022-08-19T17:48:27.710Z,28.31
2022-08-19T17:51:34.038Z,28.22
2022-08-19T17:54:41.218Z,28.17
2022-08-19T17:57:46.803Z,28.08
2022-08-19T18:00:55.298Z,28.09
2022-08-19T18:03:58.491Z,28.03
2022-08-19T18:07:05.839Z,27.95
2022-08-19T18:10:12.426Z,27.91
2022-08-19T18:13:17.222Z,27.88
2022-08-19T18:16:22.133Z,27.97
2022-08-19T18:19:31.519Z,28.05
2022-08-19T18:22:47.552Z,28.06
2022-08-19T18:25:50.368Z,28.15
2022-08-19T18:28:54.203Z,28.15
2022-08-19T18:31:57.827Z,27.88
2022-08-19T18:35:03.747Z,27.77
2022-08-19T18:38:26.400Z,27.70
2022-08-19T18:41:47.581Z,27.74
2022-08-19T18:45:08.882Z,27.82
2022-08-19T18:48:31.152Z,27.87
2022-08-19T18:51:34.318Z,27.57
2022-08-19T18:54:37.315Z,26.48
2022-08-19T18:57:39.807Z,26.10
2022-08-19T19:00:44.154Z,25.90
2022-08-19T19:03:50.998Z,24.69
2022-08-19T19:06:54.612Z,23.39
2022-08-19T19:09:57.185Z,22.72
2022-08-19T19:13:01.345Z,22.62
2022-08-19T19:16:04.531Z,23.19
2022-08-19T19:19:08.047Z,23.46
2022-08-19T19:22:18.817Z,23.85
2022-08-19T19:25:21.696Z,24.09
2022-08-19T19:28:27.532Z,24.23
2022-08-19T19:31:33.391Z,24.33
2022-08-19T19:34:38.551Z,24.49
2022-08-19T19:37:43.384Z,24.53
2022-08-19T19:40:46.057Z,24.65
2022-08-19T19:44:09.998Z,24.80
2022-08-19T19:47:16.506Z,24.37
2022-08-19T19:50:19.735Z,23.33
2022-08-19T19:53:26.251Z,22.89
2022-08-19T19:56:29.053Z,22.51
2022-08-19T19:59:32.846Z,22.91
2022-08-19T20:02:35.815Z,23.04
2022-08-19T20:05:41.307Z,22.36
2022-08-19T20:09:02.592Z,21.74
2022-08-19T20:12:05.584Z,21.64
2022-08-19T20:15:08.878Z,21.60
2022-08-19T20:18:14.354Z,21.62
2022-08-19T20:21:17.248Z,21.85
2022-08-19T20:24:28.057Z,21.89
2022-08-19T20:27:31.258Z,21.96
2022-08-19T20:30:46.415Z,21.59
2022-08-19T20:33:50.718Z,21.45
2022-08-19T20:36:53.552Z,21.32
2022-08-19T20:39:56.114Z,21.02
2022-08-19T20:42:58.942Z,20.99
2022-08-19T20:46:04.340Z,20.96
2022-08-19T20:49:08.163Z,20.88
2022-08-19T20:52:10.873Z,20.72
2022-08-19T20:55:13.743Z,20.49
2022-08-19T20:58:18.816Z,20.55
2022-08-19T21:01:22.135Z,20.64
2022-08-19T21:04:24.864Z,20.58
2022-08-19T21:07:38.951Z,20.48
2022-08-19T21:10:42.557Z,20.30
2022-08-19T21:13:45.373Z,20.19
2022-08-19T21:16:49.298Z,20.07
2022-08-19T21:19:52.154Z,20.09
2022-08-19T21:22:54.722Z,20.10
2022-08-19T21:25:59.216Z,20.21
2022-08-19T21:29:01.744Z,20.35
2022-08-19T21:32:05.210Z,20.47
2022-08-19T21:35:08.093Z,20.56
2022-08-19T21:38:10.852Z,20.63
2022-08-19T21:41:13.402Z,20.63
2022-08-19T21:44:16.158Z,20.55
2022-08-19T21:47:18.768Z,20.34
2022-08-19T21:50:23.900Z,20.32
2022-08-19T21:53:34.102Z,20.38
2022-08-19T21:56:42.256Z,20.48
2022-08-19T21:59:44.852Z,20.55
2022-08-19T22:02:47.677Z,20.58
2022-08-19T22:05:50.862Z,20.60
2022-08-19T22:08:56.653Z,20.53
2022-08-19T22:11:59.674Z,20.40
2022-08-19T22:15:02.444Z,20.49
2022-08-19T22:18:06.033Z,20.38
2022-08-19T22:21:12.019Z,20.33
2022-08-19T22:24:15.055Z,20.29
2022-08-19T22:27:17.632Z,20.33
2022-08-19T22:30:22.279Z,20.43
2022-08-19T22:33:27.648Z,20.35
2022-08-19T22:36:35.453Z,20.35
2022-08-19T22:39:38.030Z,20.42
2022-08-19T22:42:40.917Z,20.38
2022-08-19T22:45:44.894Z,20.51
2022-08-19T22:48:49.472Z,20.49
2022-08-19T22:52:19.320Z,20.47
2022-08-19T22:55:22.193Z,20.43
2022-08-19T22:58:28.311Z,20.39
2022-08-19T23:01:31.244Z,20.37
2022-08-19T23:04:34.787Z,20.39
2022-08-19T23:07:38.116Z,20.36
2022-08-19T23:10:40.764Z,20.45
2022-08-19T23:13:43.751Z,20.43
2022-08-19T23:16:50.838Z,20.37
2022-08-19T23:19:53.950Z,20.37
2022-08-19T23:22:57.559Z,20.41
2022-08-19T23:26:00.302Z,20.39
2022-08-19T23:29:22.394Z,20.36
2022-08-19T23:32:25.557Z,20.34
2022-08-19T23:35:34.010Z,20.42
2022-08-19T23:38:36.776Z,20.35
2022-08-19T23:41:39.228Z,20.24
2022-08-19T23:44:51.897Z,20.18
2022-08-19T23:47:57.893Z,20.23
2022-08-19T23:51:03.881Z,20.28
2022-08-19T23:54:06.818Z,20.21
2022-08-19T23:57:13.746Z,20.28
